createdAt,value
2023-03-20T00:02:23.033Z,70.22
2023-03-20T00:04:55.372Z,70.11
2023-03-20T00:07:30.879Z,70.07
2023-03-20T00:10:02.799Z,69.98
2023-03-20T00:12:52.009Z,69.97
2023-03-20T00:15:25.009Z,70.12
2023-03-20T00:17:53.386Z,70.06
2023-03-20T00:20:28.391Z,70.08
2023-03-20T00:22:58.110Z,70.13
2023-03-20T00:25:26.882Z,70.17
2023-03-20T00:27:56.738Z,70.27
2023-03-20T00:30:29.719Z,70.22
2023-03-20T00:32:58.771Z,70.22
2023-03-20T00:35:29.897Z,70.34
2023-03-20T00:38:04.002Z,70.57
2023-03-20T00:40:35.699Z,70.44
2023-03-20T00:43:05.096Z,70.50
2023-03-20T00:45:34.456Z,70.56
2023-03-20T00:48:03.799Z,70.71
2023-03-20T00:50:32.182Z,70.90
2023-03-20T00:53:01.878Z,71.10
2023-03-20T00:55:30.460Z,71.18
2023-03-20T00:58:01.598Z,71.32
2023-03-20T01:00:43.606Z,71.36
2023-03-20T01:03:15.658Z,71.30
2023-03-20T01:05:44.649Z,71.22
2023-03-20T01:08:15.067Z,71.05
2023-03-20T01:10:47.496Z,71.12
2023-03-20T01:13:25.092Z,71.19
2023-03-20T01:15:54.125Z,71.25
2023-03-20T01:18:23.174Z,71.37
2023-03-20T01:20:53.154Z,71.61
2023-03-20T01:23:23.131Z,71.73
2023-03-20T01:25:54.788Z,71.66
2023-03-20T01:28:24.024Z,71.97
2023-03-20T01:30:52.909Z,71.96
2023-03-20T01:33:41.772Z,71.97
2023-03-20T01:36:12.137Z,71.98
2023-03-20T01:38:40.528Z,72.16
2023-03-20T01:41:22.979Z,72.02
2023-03-20T01:43:51.730Z,72.32
2023-03-20T01:46:25.765Z,72.31
2023-03-20T01:49:00.515Z,72.18
2023-03-20T01:51:33.166Z,72.40
2023-03-20T01:54:10.422Z,72.30
2023-03-20T01:56:54.458Z,72.14
2023-03-20T02:00:01.750Z,72.03
2023-03-20T02:02:32.091Z,71.79
2023-03-20T02:05:03.207Z,71.91
2023-03-20T02:07:32.108Z,71.87
2023-03-20T02:10:13.577Z,71.89
2023-03-20T02:12:48.104Z,71.89
2023-03-20T02:15:20.558Z,71.90
2023-03-20T02:18:11.812Z,71.90
2023-03-20T02:21:22.155Z,72.08
2023-03-20T02:24:04.245Z,72.04
2023-03-20T02:26:44.320Z,71.91
2023-03-20T02:29:16.939Z,71.77
2023-03-20T02:32:00.521Z,72.12
2023-03-20T02:34:29.835Z,71.98
2023-03-20T02:37:21.992Z,72.02
2023-03-20T02:39:56.640Z,72.06
2023-03-20T02:42:58.336Z,72.65
2023-03-20T02:45:34.184Z,72.53
2023-03-20T02:48:40.754Z,72.84
2023-03-20T02:51:40.124Z,73.22
2023-03-20T02:54:18.488Z,73.30
2023-03-20T02:56:52.619Z,73.59
2023-03-20T02:59:49.456Z,73.84
2023-03-20T03:02:24.771Z,74.03
2023-03-20T03:05:00.202Z,74.17
2023-03-20T03:07:33.000Z,74.06
2023-03-20T03:10:07.060Z,74.46
2023-03-20T03:12:38.218Z,74.45
2023-03-20T03:15:36.456Z,75.09
2023-03-20T03:18:07.764Z,75.33
2023-03-20T03:20:38.225Z,76.02
2023-03-20T03:23:06.871Z,76.18
2023-03-20T03:25:37.944Z,76.37
2023-03-20T03:28:13.800Z,75.90
2023-03-20T03:30:45.364Z,75.66
2023-03-20T03:33:21.277Z,75.47
2023-03-20T03:35:55.432Z,75.22
2023-03-20T03:38:49.161Z,75.06
2023-03-20T03:41:17.342Z,74.71
2023-03-20T03:43:52.253Z,74.73
2023-03-20T03:46:25.665Z,74.69
2023-03-20T03:48:57.159Z,74.73
2023-03-20T03:51:28.325Z,74.72
2023-03-20T03:54:12.151Z,74.85
2023-03-20T03:56:41.701Z,75.04
2023-03-20T03:59:36.242Z,75.36
2023-03-20T04:02:05.938Z,75.56
2023-03-20T04:04:37.327Z,75.61
2023-03-20T04:07:05.715Z,75.68
2023-03-20T04:09:35.170Z,75.83
2023-03-20T04:12:29.659Z,76.11
2023-03-20T04:14:57.962Z,76.20
2023-03-20T04:17:28.103Z,75.92
2023-03-20T04:19:58.093Z,75.79
2023-03-20T04:22:27.087Z,76.00
2023-03-20T04:24:57.276Z,76.44
2023-03-20T04:27:29.195Z,76.63
2023-03-20T04:29:58.322Z,76.52
2023-03-20T04:32:47.526Z,76.48
2023-03-20T04:35:21.563Z,76.41
2023-03-20T04:37:54.970Z,76.38
2023-03-20T04:40:23.332Z,76.40
2023-03-20T04:42:52.680Z,76.53
2023-03-20T04:45:21.215Z,76.61
2023-03-20T04:47:55.171Z,76.62
2023-03-20T04:50:24.671Z,76.81
2023-03-20T04:52:53.797Z,76.54
2023-03-20T04:55:23.295Z,76.47
2023-03-20T04:57:52.170Z,76.34
2023-03-20T05:00:20.646Z,76.57
2023-03-20T05:02:49.324Z,76.72
2023-03-20T05:05:18.297Z,76.59
2023-03-20T05:07:52.455Z,76.64
2023-03-20T05:10:32.274Z,76.50
2023-03-20T05:13:07.887Z,76.36
2023-03-20T05:15:56.677Z,76.48
2023-03-20T05:18:45.656Z,76.05
2023-03-20T05:21:35.123Z,76.07
2023-03-20T05:24:27.601Z,75.70
2023-03-20T05:27:33.424Z,75.43
2023-03-20T05:30:17.070Z,75.19
2023-03-20T05:33:06.867Z,74.63
2023-03-20T05:35:44.691Z,74.34
2023-03-20T05:38:36.968Z,73.95
2023-03-20T05:41:18.416Z,73.74
2023-03-20T05:44:04.556Z,73.51
2023-03-20T05:46:45.842Z,73.29
2023-03-20T05:49:19.798Z,73.09
2023-03-20T05:52:17.048Z,72.89
2023-03-20T05:55:04.822Z,73.01
2023-03-20T05:57:46.881Z,72.48
2023-03-20T06:00:29.759Z,72.42
2023-03-20T06:03:24.355Z,72.37
2023-03-20T06:06:07.039Z,72.48
2023-03-20T06:08:36.840Z,72.36
2023-03-20T06:11:05.352Z,72.33
2023-03-20T06:13:36.549Z,71.78
2023-03-20T06:16:09.055Z,71.65
2023-03-20T06:18:39.380Z,71.34
2023-03-20T06:21:09.496Z,71.09
2023-03-20T06:23:38.727Z,70.87
2023-03-20T06:26:07.124Z,70.68
2023-03-20T06:28:46.121Z,70.26
2023-03-20T06:31:16.689Z,69.82
2023-03-20T06:33:45.610Z,69.52
2023-03-20T06:36:14.539Z,69.18
2023-03-20T06:38:44.071Z,68.97
2023-03-20T06:41:24.587Z,68.86
2023-03-20T06:44:05.038Z,68.61
2023-03-20T06:46:52.315Z,67.97
2023-03-20T06:49:21.544Z,67.44
2023-03-20T06:51:50.451Z,67.00
2023-03-20T06:54:26.340Z,66.64
2023-03-20T06:56:54.983Z,65.95
2023-03-20T06:59:24.225Z,65.58
2023-03-20T07:01:57.269Z,65.14
2023-03-20T07:04:27.759Z,64.80
2023-03-20T07:07:02.182Z,64.64
2023-03-20T07:09:33.396Z,64.02
2023-03-20T07:12:03.010Z,63.79
2023-03-20T07:14:32.322Z,63.44
2023-03-20T07:17:05.767Z,63.11
2023-03-20T07:19:38.127Z,62.38
2023-03-20T07:22:08.152Z,61.83
2023-03-20T07:24:40.694Z,61.16
2023-03-20T07:27:14.555Z,60.93
2023-03-20T07:29:43.586Z,60.64
2023-03-20T07:32:14.472Z,60.46
2023-03-20T07:34:51.042Z,60.23
2023-03-20T07:37:20.426Z,59.63
2023-03-20T07:40:01.180Z,59.85
2023-03-20T07:42:36.107Z,59.10
2023-03-20T07:45:17.066Z,58.68
2023-03-20T07:47:48.686Z,58.44
2023-03-20T07:50:17.318Z,58.05
2023-03-20T07:52:49.475Z,57.63
2023-03-20T07:55:18.696Z,57.19
2023-03-20T07:57:49.765Z,56.35
2023-03-20T08:00:20.131Z,55.34
2023-03-20T08:02:51.891Z,53.95
2023-03-20T08:05:22.038Z,53.12
2023-03-20T08:07:51.510Z,52.10
2023-03-20T08:10:20.043Z,51.12
2023-03-20T08:12:48.622Z,50.86
2023-03-20T08:15:17.380Z,50.46
2023-03-20T08:17:45.939Z,50.01
2023-03-20T08:20:16.412Z,49.78
2023-03-20T08:22:44.931Z,49.13
2023-03-20T08:25:13.534Z,48.64
2023-03-20T08:27:42.226Z,47.86
2023-03-20T08:30:11.107Z,47.22
2023-03-20T08:32:59.177Z,46.53
2023-03-20T08:35:33.199Z,46.41
2023-03-20T08:38:02.142Z,46.17
2023-03-20T08:40:30.994Z,45.81
2023-03-20T08:42:59.465Z,45.96
2023-03-20T08:45:33.160Z,45.64
2023-03-20T08:48:01.936Z,45.48
2023-03-20T08:50:34.617Z,45.29
2023-03-20T08:53:03.045Z,44.85
2023-03-20T08:55:31.252Z,44.30
2023-03-20T08:58:00.679Z,43.89
2023-03-20T09:00:29.362Z,43.23
2023-03-20T09:02:57.988Z,43.19
2023-03-20T09:05:27.495Z,43.08
2023-03-20T09:07:55.948Z,42.85
2023-03-20T09:10:24.640Z,42.17
2023-03-20T09:12:53.039Z,42.02
2023-03-20T09:15:23.778Z,41.62
2023-03-20T09:17:55.626Z,41.18
2023-03-20T09:20:24.589Z,41.07
2023-03-20T09:22:54.094Z,40.39
2023-03-20T09:25:22.317Z,40.36
2023-03-20T09:27:57.483Z,40.24
2023-03-20T09:30:26.126Z,40.16
2023-03-20T09:32:55.785Z,40.03
2023-03-20T09:35:24.251Z,40.00
2023-03-20T09:37:52.863Z,39.85
2023-03-20T09:40:40.962Z,39.84
2023-03-20T09:43:37.626Z,39.52
2023-03-20T09:46:49.796Z,39.51
2023-03-20T09:49:42.744Z,39.11
2023-03-20T09:52:32.844Z,38.60
2023-03-20T09:55:08.176Z,38.43
2023-03-20T09:57:40.090Z,37.93
2023-03-20T10:00:17.790Z,37.63
2023-03-20T10:03:01.293Z,37.17
2023-03-20T10:05:31.530Z,37.06
2023-03-20T10:08:01.966Z,36.73
2023-03-20T10:10:47.153Z,36.10
2023-03-20T10:13:37.709Z,35.39
2023-03-20T10:16:22.734Z,35.25
2023-03-20T10:19:24.975Z,35.68
2023-03-20T10:22:02.186Z,36.20
2023-03-20T10:24:36.586Z,35.73
2023-03-20T10:27:34.853Z,35.14
2023-03-20T10:30:27.165Z,35.26
2023-03-20T10:33:07.852Z,35.66
2023-03-20T10:35:43.646Z,35.45
2023-03-20T10:38:49.192Z,35.09
2023-03-20T10:41:19.250Z,34.85
2023-03-20T10:43:51.614Z,34.88
2023-03-20T10:46:35.757Z,34.93
2023-03-20T10:49:19.097Z,35.15
2023-03-20T10:52:00.263Z,35.07
2023-03-20T10:54:34.653Z,35.33
2023-03-20T10:57:04.797Z,35.21
2023-03-20T10:59:38.954Z,35.67
2023-03-20T11:02:12.692Z,35.88
2023-03-20T11:04:41.081Z,35.86
2023-03-20T11:07:12.213Z,35.29
2023-03-20T11:09:40.822Z,35.00
2023-03-20T11:12:20.890Z,35.20
2023-03-20T11:14:54.362Z,35.33
2023-03-20T11:17:23.038Z,35.23
2023-03-20T11:19:51.481Z,34.52
2023-03-20T11:22:23.588Z,34.28
2023-03-20T11:24:54.316Z,34.21
2023-03-20T11:27:28.506Z,34.25
2023-03-20T11:29:59.688Z,34.28
2023-03-20T11:32:36.293Z,34.23
2023-03-20T11:35:20.628Z,34.26
2023-03-20T11:37:52.240Z,33.90
2023-03-20T11:40:25.952Z,34.11
2023-03-20T11:43:06.495Z,34.03
2023-03-20T11:45:39.255Z,33.44
2023-03-20T11:48:23.755Z,33.29
2023-03-20T11:51:04.444Z,33.26
2023-03-20T11:53:46.398Z,33.29
2023-03-20T11:56:23.110Z,33.32
2023-03-20T11:59:04.937Z,33.19
2023-03-20T12:01:50.936Z,33.09
2023-03-20T12:04:28.248Z,32.84
2023-03-20T12:07:12.864Z,33.00
2023-03-20T12:10:06.506Z,32.41
2023-03-20T12:12:37.171Z,32.34
2023-03-20T12:15:17.277Z,32.00
2023-03-20T12:18:02.827Z,32.29
2023-03-20T12:20:41.877Z,32.58
2023-03-20T12:23:12.175Z,32.79
2023-03-20T12:26:07.452Z,32.37
2023-03-20T12:28:41.818Z,32.24
2023-03-20T12:31:19.293Z,32.30
2023-03-20T12:34:06.595Z,32.08
2023-03-20T12:36:39.697Z,32.10
2023-03-20T12:39:35.407Z,32.04
2023-03-20T12:42:35.821Z,32.31
2023-03-20T12:45:26.696Z,32.49
2023-03-20T12:48:22.590Z,32.68
2023-03-20T12:51:03.085Z,32.40
2023-03-20T12:54:00.510Z,32.52
2023-03-20T12:56:48.341Z,32.41
2023-03-20T12:59:25.352Z,32.57
2023-03-20T13:01:57.691Z,32.74
2023-03-20T13:04:45.128Z,32.63
2023-03-20T13:07:29.580Z,32.39
2023-03-20T13:10:04.067Z,32.43
2023-03-20T13:12:37.515Z,31.79
2023-03-20T13:15:30.459Z,31.97
2023-03-20T13:18:05.419Z,31.93
2023-03-20T13:20:54.458Z,31.68
2023-03-20T13:23:48.631Z,31.51
2023-03-20T13:26:39.222Z,31.25
2023-03-20T13:29:19.279Z,31.00
2023-03-20T13:31:50.528Z,30.99
2023-03-20T13:34:32.125Z,30.86
2023-03-20T13:37:23.891Z,30.87
2023-03-20T13:39:52.969Z,30.85
2023-03-20T13:42:22.270Z,30.36
2023-03-20T13:44:51.347Z,30.20
2023-03-20T13:47:22.293Z,30.22
2023-03-20T13:50:03.968Z,29.99
2023-03-20T13:52:46.057Z,29.89
2023-03-20T13:55:43.520Z,30.06
2023-03-20T13:58:22.765Z,30.18
2023-03-20T14:01:03.057Z,30.12
2023-03-20T14:03:38.679Z,30.28
2023-03-20T14:06:32.645Z,30.59
2023-03-20T14:09:37.157Z,31.27
2023-03-20T14:12:10.554Z,31.69
2023-03-20T14:14:56.784Z,31.87
2023-03-20T14:17:29.190Z,31.94
2023-03-20T14:19:57.800Z,32.19
2023-03-20T14:22:30.760Z,32.67
2023-03-20T14:25:25.091Z,33.21
2023-03-20T14:27:54.766Z,33.76
2023-03-20T14:30:51.400Z,34.20
2023-03-20T14:33:26.280Z,34.80
2023-03-20T14:36:22.695Z,35.22
2023-03-20T14:39:00.309Z,35.58
2023-03-20T14:41:38.974Z,35.93
2023-03-20T14:44:36.088Z,36.30
2023-03-20T14:47:10.807Z,36.48
2023-03-20T14:49:42.899Z,36.73
2023-03-20T14:52:15.343Z,36.95
2023-03-20T14:54:43.677Z,37.23
2023-03-20T14:57:26.551Z,37.54
2023-03-20T14:59:54.826Z,37.76
2023-03-20T15:02:28.419Z,38.20
2023-03-20T15:05:01.125Z,38.46
2023-03-20T15:07:31.804Z,38.57
2023-03-20T15:10:03.067Z,38.70
2023-03-20T15:12:35.338Z,38.92
2023-03-20T15:15:05.994Z,38.97
2023-03-20T15:17:41.990Z,39.17
2023-03-20T15:20:28.918Z,39.38
2023-03-20T15:23:01.296Z,39.70
2023-03-20T15:25:42.196Z,39.83
2023-03-20T15:28:21.903Z,39.97
2023-03-20T15:30:53.803Z,40.12
2023-03-20T15:33:35.416Z,40.38
2023-03-20T15:36:09.092Z,40.61
2023-03-20T15:38:37.499Z,40.90
2023-03-20T15:41:07.584Z,41.01
2023-03-20T15:43:37.004Z,41.30
2023-03-20T15:46:17.975Z,41.36
2023-03-20T15:48:48.990Z,41.48
2023-03-20T15:51:19.884Z,41.78
2023-03-20T15:53:48.442Z,42.04
2023-03-20T15:56:19.471Z,42.24
2023-03-20T15:58:49.844Z,42.60
2023-03-20T16:01:21.205Z,43.16
2023-03-20T16:03:49.648Z,43.54
2023-03-20T16:06:21.598Z,44.01
2023-03-20T16:09:01.626Z,44.39
2023-03-20T16:11:38.735Z,44.82
2023-03-20T16:14:32.041Z,45.11
2023-03-20T16:17:01.350Z,45.53
2023-03-20T16:19:30.106Z,45.63
2023-03-20T16:22:33.750Z,46.11
2023-03-20T16:25:02.387Z,46.28
2023-03-20T16:27:33.946Z,46.48
2023-03-20T16:30:06.994Z,46.80
2023-03-20T16:32:39.089Z,47.19
2023-03-20T16:35:16.624Z,47.42
2023-03-20T16:37:53.214Z,47.62
2023-03-20T16:40:34.094Z,48.07
2023-03-20T16:43:30.351Z,48.27
2023-03-20T16:46:03.938Z,48.59
2023-03-20T16:48:34.678Z,48.80
2023-03-20T16:51:26.423Z,49.08
2023-03-20T16:53:58.521Z,49.31
2023-03-20T16:56:40.582Z,49.51
2023-03-20T16:59:09.716Z,49.82
2023-03-20T17:01:41.479Z,49.93
2023-03-20T17:04:18.394Z,50.28
2023-03-20T17:07:09.854Z,50.45
2023-03-20T17:09:38.269Z,50.84
2023-03-20T17:12:18.162Z,51.33
2023-03-20T17:14:50.920Z,51.50
2023-03-20T17:17:23.237Z,51.53
2023-03-20T17:19:53.364Z,51.55
2023-03-20T17:22:24.553Z,51.71
2023-03-20T17:24:55.944Z,51.70
2023-03-20T17:27:25.645Z,51.93
2023-03-20T17:29:57.597Z,52.19
2023-03-20T17:32:26.276Z,52.00
2023-03-20T17:34:55.104Z,52.22
2023-03-20T17:37:29.730Z,52.32
2023-03-20T17:40:00.935Z,52.45
2023-03-20T17:42:32.484Z,52.61
2023-03-20T17:45:03.403Z,52.82
2023-03-20T17:47:45.731Z,52.85
2023-03-20T17:50:30.452Z,53.07
2023-03-20T17:52:58.812Z,53.24
2023-03-20T17:55:27.566Z,53.31
2023-03-20T17:57:56.427Z,53.53
2023-03-20T18:00:31.394Z,53.62
2023-03-20T18:02:59.785Z,53.71
2023-03-20T18:05:28.818Z,53.85
2023-03-20T18:07:57.258Z,54.17
2023-03-20T18:10:32.218Z,54.20
2023-03-20T18:13:02.440Z,54.37
2023-03-20T18:15:32.391Z,54.49
2023-03-20T18:18:01.476Z,54.70
2023-03-20T18:20:31.646Z,54.85
2023-03-20T18:23:01.146Z,55.17
2023-03-20T18:25:30.644Z,55.25
2023-03-20T18:28:00.977Z,55.35
2023-03-20T18:30:37.128Z,55.49
2023-03-20T18:33:10.066Z,55.93
2023-03-20T18:35:39.289Z,56.12
2023-03-20T18:38:21.624Z,56.44
2023-03-20T18:40:50.253Z,56.67
2023-03-20T18:43:21.047Z,56.66
2023-03-20T18:45:51.664Z,56.84
2023-03-20T18:48:42.090Z,56.93
2023-03-20T18:51:11.964Z,56.86
2023-03-20T18:53:43.664Z,56.92
2023-03-20T18:56:17.540Z,56.99
2023-03-20T18:58:49.109Z,57.13
2023-03-20T19:01:17.458Z,57.53
2023-03-20T19:03:46.428Z,57.85
2023-03-20T19:06:17.342Z,58.32
2023-03-20T19:08:46.826Z,58.49
2023-03-20T19:11:17.878Z,58.82
2023-03-20T19:13:51.313Z,59.09
2023-03-20T19:16:24.757Z,59.25
2023-03-20T19:18:55.480Z,59.45
2023-03-20T19:21:26.578Z,59.75
2023-03-20T19:24:05.611Z,60.06
2023-03-20T19:26:36.008Z,60.35
2023-03-20T19:29:10.751Z,60.69
2023-03-20T19:31:40.004Z,60.92
2023-03-20T19:34:21.216Z,61.17
2023-03-20T19:37:06.959Z,61.07
2023-03-20T19:39:36.369Z,61.10
2023-03-20T19:42:30.361Z,61.11
2023-03-20T19:45:14.241Z,61.08
2023-03-20T19:47:42.722Z,61.10
2023-03-20T19:50:36.260Z,61.28
2023-03-20T19:53:10.285Z,61.24
2023-03-20T19:55:39.016Z,61.27
2023-03-20T19:58:08.629Z,61.39
2023-03-20T20:03:30.574Z,61.48
2023-03-20T20:06:02.779Z,61.47
2023-03-20T20:08:45.190Z,61.59
2023-03-20T20:11:21.316Z,61.65
2023-03-20T20:14:08.148Z,61.76
2023-03-20T20:16:40.256Z,61.96
2023-03-20T20:19:12.186Z,61.97
2023-03-20T20:24:32.007Z,62.34
2023-03-20T20:27:16.313Z,62.44
2023-03-20T20:29:50.650Z,62.55
2023-03-20T20:32:24.766Z,62.59
2023-03-20T20:38:33.648Z,62.87
2023-03-20T20:40:44.667Z,62.96
2023-03-20T20:43:34.845Z,63.13
2023-03-20T20:46:02.362Z,63.32
2023-03-20T20:48:31.845Z,63.29
2023-03-20T20:51:01.348Z,63.30
2023-03-20T20:53:31.135Z,63.52
2023-03-20T20:55:59.834Z,63.69
2023-03-20T20:58:29.364Z,63.73
2023-03-20T21:00:58.599Z,63.86
2023-03-20T21:03:29.169Z,63.80
2023-03-20T21:06:04.233Z,63.81
2023-03-20T21:08:34.980Z,63.93
2023-03-20T21:11:13.647Z,64.28
2023-03-20T21:13:42.940Z,64.25
2023-03-20T21:16:12.617Z,64.19
2023-03-20T21:18:47.189Z,64.55
2023-03-20T21:21:16.192Z,64.84
2023-03-20T21:23:44.482Z,65.44
2023-03-20T21:26:15.041Z,65.53
2023-03-20T21:28:43.434Z,65.73
2023-03-20T21:31:24.808Z,65.72
2023-03-20T21:33:55.586Z,66.06
2023-03-20T21:36:24.082Z,66.23
2023-03-20T21:39:09.290Z,66.00
2023-03-20T21:41:38.510Z,66.51
2023-03-20T21:44:07.634Z,66.64
2023-03-20T21:55:52.125Z,68.36
2023-03-20T22:04:54.630Z,68.99
2023-03-20T22:13:24.589Z,69.26
2023-03-20T22:15:39.426Z,69.45
2023-03-20T22:18:38.396Z,69.66
2023-03-20T22:21:31.692Z,69.85
2023-03-20T22:24:24.776Z,69.72
2023-03-20T22:30:01.594Z,69.11
2023-03-20T22:32:44.162Z,69.19
2023-03-20T22:41:21.892Z,68.86
2023-03-20T22:44:13.653Z,69.13
2023-03-20T22:46:32.478Z,69.18
2023-03-20T22:48:56.975Z,69.12
2023-03-20T22:51:32.637Z,68.82
2023-03-20T22:54:06.011Z,68.84
2023-03-20T22:56:36.305Z,68.95
2023-03-20T22:59:05.083Z,69.09
2023-03-20T23:01:33.871Z,68.99
2023-03-20T23:04:02.093Z,69.44
2023-03-20T23:06:35.483Z,69.46
2023-03-20T23:09:14.427Z,69.65
2023-03-20T23:11:44.079Z,69.59
2023-03-20T23:14:25.024Z,69.83
2023-03-20T23:16:55.712Z,69.67
2023-03-20T23:19:25.410Z,69.95
2023-03-20T23:21:53.940Z,70.13
2023-03-20T23:24:22.513Z,69.75
2023-03-20T23:26:52.760Z,69.91
2023-03-20T23:29:21.545Z,70.59
2023-03-20T23:31:49.812Z,70.59
2023-03-20T23:34:18.973Z,70.53
2023-03-20T23:36:47.792Z,70.61
2023-03-20T23:39:16.236Z,70.45
2023-03-20T23:44:32.949Z,70.56
2023-03-20T23:47:03.304Z,70.36
2023-03-20T23:49:32.188Z,70.55
2023-03-20T23:52:00.345Z,70.59
2023-03-20T23:54:28.621Z,70.60
2023-03-20T23:56:57.325Z,70.53
2023-03-20T23:59:25.699Z,70.95
